Time;durP1;ratioP1;P1;durP2;ratioP2;P2;SDS_P1;SDS_P2;PMS_P1;PMS_P2;Temp;Humidity;BMP_temperature;BMP_pressure;BME280_temperature;BME280_humidity;BME280_pressure;Samples;Min_cycle;Max_cycle;Signal;HPM_P1;HPM_P2
2021/07/04 02:58:46;;;;;;;28.50;18.32;;;;;;;13.95;91.82;98723.92;4680837;74;22158;-81
2021/07/04 03:04:49;;;;;;;28.45;16.07;;;;;;;13.81;91.52;98722.64;4431373;78;21027;-80
2021/07/04 03:10:52;;;;;;;23.32;13.78;;;;;;;13.85;91.64;98726.75;4430008;78;21990;-80
2021/07/04 03:16:55;;;;;;;20.12;13.70;;;;;;;13.92;91.97;98724.73;4422265;78;21514;-80
2021/07/04 03:22:57;;;;;;;17.95;12.07;;;;;;;14.16;92.39;98727.13;4520241;77;21820;-80
2021/07/04 03:28:59;;;;;;;20.88;14.05;;;;;;;14.34;92.32;98734.70;4528096;77;21024;-80
2021/07/04 03:35:06;;;;;;;21.52;13.03;;;;;;;14.48;92.02;98733.78;4529845;77;21058;-79
2021/07/04 03:41:08;;;;;;;17.87;13.35;;;;;;;14.58;91.98;98730.93;4506874;77;21046;-80
2021/07/04 03:47:09;;;;;;;19.25;13.40;;;;;;;14.69;92.08;98747.38;4373793;78;22136;-81
2021/07/04 03:53:12;;;;;;;17.77;11.78;;;;;;;14.86;92.31;98751.33;4384254;80;21006;-80
2021/07/04 03:59:14;;;;;;;16.80;12.45;;;;;;;14.94;92.15;98752.82;4377844;80;21026;-80
2021/07/04 04:05:15;;;;;;;21.33;11.80;;;;;;;15.06;91.93;98755.67;4335699;80;21061;-82
2021/07/04 04:11:19;;;;;;;16.85;12.63;;;;;;;15.22;92.03;98760.78;4315348;80;21096;-80
2021/07/04 04:17:22;;;;;;;20.92;12.82;;;;;;;15.36;91.78;98759.25;4396567;79;21353;-80
2021/07/04 04:23:25;;;;;;;16.10;11.45;;;;;;;15.43;91.67;98755.07;4395097;79;21105;-80
2021/07/04 04:29:26;;;;;;;16.52;11.80;;;;;;;15.52;91.44;98758.10;4407524;79;21453;-80
2021/07/04 04:35:28;;;;;;;17.48;11.70;;;;;;;15.55;91.39;98755.13;4394228;79;21049;-81
2021/07/04 04:41:29;;;;;;;18.40;11.93;;;;;;;15.57;91.17;98754.10;4395371;79;21015;-80
2021/07/04 04:47:30;;;;;;;18.73;14.07;;;;;;;15.52;90.99;98752.59;4397243;79;21089;-81
2021/07/04 04:53:32;;;;;;;17.17;12.07;;;;;;;15.53;91.00;98758.27;4395677;79;21030;-80
2021/07/04 04:59:39;;;;;;;18.30;11.80;;;;;;;15.59;91.21;98760.00;4425509;79;21053;-80
2021/07/04 05:05:40;;;;;;;18.37;11.60;;;;;;;15.72;91.16;98750.57;4428331;79;21085;-80
2021/07/04 05:11:44;;;;;;;26.07;12.82;;;;;;;15.88;91.01;98753.51;4428863;79;21030;-81
2021/07/04 05:17:45;;;;;;;15.85;11.83;;;;;;;15.98;90.83;98756.70;4424807;79;21082;-81
2021/07/04 05:23:48;;;;;;;17.37;11.43;;;;;;;16.09;90.83;98753.98;4428003;79;21062;-81
2021/07/04 05:29:49;;;;;;;17.10;11.15;;;;;;;16.25;90.64;98750.59;4423999;79;21026;-81
2021/07/04 05:35:50;;;;;;;17.73;11.75;;;;;;;16.47;90.79;98749.88;4420384;79;21007;-81
2021/07/04 05:41:52;;;;;;;23.10;15.08;;;;;;;16.73;90.54;98742.70;4423045;79;21010;-81
2021/07/04 05:47:54;;;;;;;18.92;12.07;;;;;;;16.97;90.27;98738.73;4415082;79;21010;-82
2021/07/04 05:53:56;;;;;;;17.15;11.80;;;;;;;17.16;90.01;98735.20;4420272;79;21041;-81
2021/07/04 05:59:57;;;;;;;18.07;11.88;;;;;;;17.32;89.73;98732.50;4392901;79;20991;-80
2021/07/04 06:05:59;;;;;;;19.65;12.20;;;;;;;17.45;89.54;98734.84;4393066;79;21066;-80
2021/07/04 06:12:00;;;;;;;18.37;11.68;;;;;;;17.60;89.43;98739.48;4395897;79;21070;-80
2021/07/04 06:18:01;;;;;;;25.40;13.05;;;;;;;17.78;89.17;98742.05;4394253;79;21030;-81
2021/07/04 06:24:03;;;;;;;20.37;11.28;;;;;;;17.97;88.86;98741.23;4395814;79;21004;-80
2021/07/04 06:30:10;;;;;;;22.27;12.90;;;;;;;18.11;88.40;98749.81;4391415;79;21018;-81
2021/07/04 06:36:12;;;;;;;23.73;13.70;;;;;;;18.27;87.79;98754.00;4395457;79;21106;-81
2021/07/04 06:42:14;;;;;;;16.75;11.38;;;;;;;18.42;86.90;98751.87;4392639;79;21092;-81
2021/07/04 06:48:15;;;;;;;20.30;13.40;;;;;;;18.54;86.45;98755.95;4398019;79;20982;-81
2021/07/04 06:54:16;;;;;;;14.23;9.38;;;;;;;18.78;86.10;98753.14;4387292;78;21039;-78
2021/07/04 07:00:20;;;;;;;15.20;8.85;;;;;;;19.11;85.65;98753.27;4386545;79;21066;-81
2021/07/04 07:06:21;;;;;;;11.20;7.70;;;;;;;19.61;85.68;98749.30;4386334;79;21549;-80
2021/07/04 07:12:23;;;;;;;13.25;8.03;;;;;;;20.37;85.13;98743.84;4310324;80;21006;-81
2021/07/04 07:18:24;;;;;;;13.50;8.50;;;;;;;21.12;83.26;98734.75;4390915;79;21058;-80
2021/07/04 07:24:27;;;;;;;17.27;8.65;;;;;;;21.77;82.18;98737.53;4384944;78;21058;-82
2021/07/04 07:30:29;;;;;;;13.25;8.20;;;;;;;22.33;81.11;98742.29;4394114;79;21065;-80
2021/07/04 07:36:31;;;;;;;12.63;7.83;;;;;;;22.78;80.11;98745.26;4389189;78;21555;-81
2021/07/04 07:42:32;;;;;;;9.03;6.87;;;;;;;23.07;78.72;98751.78;4381483;78;21952;-81
2021/07/04 07:48:33;;;;;;;8.73;6.05;;;;;;;23.34;77.42;98751.83;4302060;81;20971;-80
2021/07/04 07:54:43;;;;;;;9.55;6.90;;;;;;;23.54;76.12;98746.53;4385386;78;21112;-80
2021/07/04 08:00:45;;;;;;;8.38;6.22;;;;;;;23.57;75.11;98738.61;4381068;78;21511;-80
2021/07/04 08:06:48;;;;;;;9.35;6.42;;;;;;;23.44;73.89;98732.44;4376332;79;21509;-81
2021/07/04 08:12:50;;;;;;;11.33;5.90;;;;;;;23.41;72.66;98722.20;4302160;81;21058;-80
2021/07/04 08:18:52;;;;;;;8.45;5.80;;;;;;;23.19;72.16;98713.94;4248062;82;21034;-80
2021/07/04 08:24:53;;;;;;;7.67;5.92;;;;;;;23.10;71.73;98721.54;4212926;82;21102;-80
2021/07/04 08:30:55;;;;;;;8.70;6.33;;;;;;;22.99;70.50;98718.46;4300357;81;21012;-80
2021/07/04 08:36:56;;;;;;;8.83;6.78;;;;;;;23.08;69.95;98712.87;4384757;79;21057;-81
2021/07/04 08:42:58;;;;;;;9.90;6.12;;;;;;;23.07;69.17;98715.49;4381685;79;21582;-80
2021/07/04 08:48:59;;;;;;;8.95;6.47;;;;;;;23.00;69.30;98715.20;4380128;79;21590;-81
2021/07/04 08:55:02;;;;;;;8.93;6.75;;;;;;;23.05;68.35;98706.83;4380624;79;21019;-80
2021/07/04 09:01:17;;;;;;;8.50;5.97;;;;;;;23.19;67.68;98706.20;4387881;79;20997;-80
2021/07/04 09:07:26;;;;;;;9.18;6.35;;;;;;;23.17;67.35;98700.30;4385633;79;21017;-81
2021/07/04 09:13:27;;;;;;;6.67;5.80;;;;;;;23.12;66.81;98698.91;4392757;79;21121;-80
2021/07/04 09:19:29;;;;;;;9.53;6.20;;;;;;;23.17;65.93;98700.30;4389723;79;21087;-82
2021/07/04 09:25:40;;;;;;;11.53;7.03;;;;;;;23.23;65.48;98685.87;4389807;79;21046;-80
2021/07/04 09:31:40;;;;;;;7.85;6.35;;;;;;;23.03;65.45;98690.55;4365439;79;21651;-80
2021/07/04 09:37:46;;;;;;;8.85;4.97;;;;;;;23.16;65.02;98679.97;4389153;79;21514;-80
2021/07/04 09:43:47;;;;;;;8.13;5.92;;;;;;;22.97;64.38;98682.61;4399505;79;20964;-82
2021/07/04 09:49:49;;;;;;;6.22;5.42;;;;;;;23.13;64.01;98675.33;4391039;78;21022;-81
2021/07/04 09:55:51;;;;;;;9.68;5.33;;;;;;;23.12;64.14;98666.02;4389119;79;21046;-81
2021/07/04 10:01:52;;;;;;;7.55;4.72;;;;;;;23.46;64.21;98664.92;4395578;79;21060;-80
2021/07/04 10:07:54;;;;;;;7.65;5.10;;;;;;;23.66;63.29;98666.58;4395706;79;21072;-81
2021/07/04 10:13:55;;;;;;;8.55;4.87;;;;;;;23.68;62.80;98654.31;4389729;79;21047;-81
2021/07/04 10:19:59;;;;;;;6.60;4.35;;;;;;;24.26;61.87;98638.69;4401177;78;21787;-82
2021/07/04 10:26:03;;;;;;;6.65;5.53;;;;;;;24.27;61.49;98638.08;4392101;79;21038;-80
2021/07/04 10:32:08;;;;;;;8.18;4.92;;;;;;;24.78;60.34;98627.47;4394450;78;21042;-82
2021/07/04 10:38:14;;;;;;;6.33;4.40;;;;;;;25.06;60.40;98625.98;4395104;79;21504;-82
2021/07/04 10:44:16;;;;;;;5.40;4.65;;;;;;;24.96;59.91;98606.95;4396125;79;21686;-81
2021/07/04 10:50:18;;;;;;;5.60;5.00;;;;;;;25.39;59.56;98599.22;4391954;79;20999;-81
2021/07/04 10:56:40;;;;;;;5.03;4.53;;;;;;;25.30;59.74;98598.67;4396139;79;21042;-82
2021/07/04 11:03:20;;;;;;;7.03;4.67;;;;;;;25.57;56.63;98590.00;4390137;79;21574;-81
2021/07/04 11:09:21;;;;;;;5.83;4.35;;;;;;;26.34;56.98;98596.63;4397305;78;21542;-82
2021/07/04 11:15:25;;;;;;;6.35;4.47;;;;;;;26.84;57.08;98584.78;4405945;78;21067;-82
2021/07/04 11:21:54;;;;;;;5.72;4.15;;;;;;;27.33;55.49;98578.91;4297472;79;48338;-81
2021/07/04 11:28:20;;;;;;;7.12;4.10;;;;;;;27.59;54.98;98568.37;4261413;80;21031;-82
2021/07/04 11:34:21;;;;;;;4.58;4.10;;;;;;;27.16;54.63;98574.36;4271763;80;21828;-82
2021/07/04 11:40:24;;;;;;;5.10;3.77;;;;;;;27.28;53.70;98569.78;4278952;81;21031;-82
2021/07/04 11:46:28;;;;;;;4.28;3.87;;;;;;;27.80;51.83;98561.26;4274901;81;22376;-82
2021/07/04 11:52:30;;;;;;;5.70;3.85;;;;;;;27.69;52.57;98563.34;4274981;80;21673;-82
2021/07/04 11:58:31;;;;;;;3.70;3.40;;;;;;;27.96;51.74;98558.57;4294613;80;21063;-81
2021/07/04 12:04:39;;;;;;;5.12;3.60;;;;;;;27.96;50.83;98550.76;4316666;80;21016;-83
2021/07/04 12:10:52;;;;;;;5.42;3.85;;;;;;;28.02;51.21;98545.30;4314458;80;21012;-82
2021/07/04 12:16:57;;;;;;;5.10;4.05;;;;;;;28.05;51.12;98549.17;4315026;80;21019;-82
2021/07/04 12:23:02;;;;;;;5.95;4.28;;;;;;;27.76;50.97;98542.42;4316986;80;21064;-83
2021/07/04 12:29:04;;;;;;;4.40;4.00;;;;;;;27.79;50.74;98540.79;4317475;80;21090;-83
2021/07/04 12:35:10;;;;;;;4.92;4.22;;;;;;;27.49;49.36;98524.88;4317614;80;21574;-82
2021/07/04 12:41:15;;;;;;;5.25;3.85;;;;;;;27.16;48.92;98533.00;4314534;80;21526;-82
2021/07/04 12:47:17;;;;;;;6.12;3.98;;;;;;;26.69;47.66;98528.55;4317563;80;21078;-82
2021/07/04 12:53:19;;;;;;;4.67;3.47;;;;;;;26.40;48.31;98528.09;4318622;80;21092;-82
2021/07/04 12:59:32;;;;;;;4.45;3.52;;;;;;;26.26;47.62;98519.75;4286497;80;21032;-83
2021/07/04 13:05:38;;;;;;;4.92;3.62;;;;;;;25.87;47.35;98515.77;4270555;80;21562;-82
2021/07/04 13:11:42;;;;;;;3.55;3.25;;;;;;;25.79;47.74;98506.22;4266621;80;21380;-84
2021/07/04 13:17:45;;;;;;;3.58;3.25;;;;;;;25.86;47.51;98498.81;4264114;81;21106;-82
2021/07/04 13:23:48;;;;;;;4.35;3.37;;;;;;;25.89;47.56;98500.63;4267308;81;21078;-82
2021/07/04 13:29:52;;;;;;;5.90;3.80;;;;;;;25.83;47.34;98488.58;4265061;80;21066;-82
2021/07/04 13:35:54;;;;;;;6.12;3.50;;;;;;;25.81;47.60;98483.30;4267220;81;21043;-82
2021/07/04 13:41:55;;;;;;;6.15;4.15;;;;;;;25.72;47.18;98483.44;4268732;81;21049;-82
2021/07/04 13:48:01;;;;;;;4.35;3.70;;;;;;;25.63;47.00;98481.55;4266877;81;21055;-83
2021/07/04 13:54:02;;;;;;;;;;;;;;;25.70;47.06;98476.17;4270239;81;21071;-84
2021/07/04 14:00:06;;;;;;;4.37;3.98;;;;;;;25.63;47.40;98470.34;4211584;82;20187;-82
2021/07/04 14:06:10;;;;;;;3.70;3.40;;;;;;;25.54;47.09;98466.89;4202673;82;21049;-82
2021/07/04 14:12:11;;;;;;;4.58;3.35;;;;;;;25.40;47.29;98464.25;4206826;82;21061;-82
2021/07/04 14:18:13;;;;;;;4.10;3.70;;;;;;;25.35;47.15;98450.17;4196756;82;21968;-83
2021/07/04 14:24:15;;;;;;;4.78;3.35;;;;;;;25.23;46.79;98427.43;4203115;82;21031;-82
2021/07/04 14:30:20;;;;;;;3.85;3.45;;;;;;;25.38;46.73;98447.80;4202860;82;22402;-82
2021/07/04 14:36:22;;;;;;;4.20;3.80;;;;;;;25.24;46.94;98447.95;4197945;83;22343;-82
2021/07/04 14:42:25;;;;;;;5.00;3.72;;;;;;;25.40;47.91;98446.69;4197183;82;21021;-82
2021/07/04 14:48:30;;;;;;;6.47;4.45;;;;;;;25.27;48.68;98449.00;4208710;82;21581;-82
2021/07/04 14:54:34;;;;;;;4.53;3.75;;;;;;;25.08;47.04;98437.87;4122373;84;21001;-84
2021/07/04 15:00:38;;;;;;;5.03;3.98;;;;;;;25.21;47.22;98439.74;4135412;84;21077;-83
2021/07/04 15:06:41;;;;;;;4.05;3.50;;;;;;;25.28;46.61;98436.52;4136614;83;21084;-81
2021/07/04 15:12:43;;;;;;;5.22;3.70;;;;;;;25.34;46.79;98440.23;4214122;82;21100;-82
2021/07/04 15:18:44;;;;;;;5.28;4.17;;;;;;;25.31;47.48;98439.13;4199597;82;21037;-82
2021/07/04 15:24:45;;;;;;;6.10;4.25;;;;;;;25.40;46.98;98441.84;4201668;83;21097;-84
2021/07/04 15:30:46;;;;;;;4.65;4.03;;;;;;;25.43;47.41;98440.11;4205904;82;21735;-82
2021/07/04 15:36:48;;;;;;;5.10;4.37;;;;;;;25.33;47.11;98436.65;4203356;82;22321;-82
2021/07/04 15:42:50;;;;;;;5.37;3.92;;;;;;;25.28;47.17;98430.30;4200452;82;21083;-83
2021/07/04 15:48:52;;;;;;;6.15;3.85;;;;;;;25.16;46.79;98423.62;4188620;82;21080;-83
2021/07/04 15:54:53;;;;;;;4.03;3.62;;;;;;;24.92;46.99;98415.36;4205615;82;21493;-83
2021/07/04 16:01:14;;;;;;;5.08;4.55;;;;;;;24.92;46.99;98415.36;4245302;81;21087;-81
2021/07/04 16:07:16;;;;;;;5.53;3.90;;;;;;;24.83;46.68;98402.88;4295487;80;20975;-82
2021/07/04 16:13:17;;;;;;;7.70;4.17;;;;;;;24.73;46.65;98403.47;4298532;81;21531;-82
2021/07/04 16:19:20;;;;;;;4.55;3.85;;;;;;;24.54;45.70;98398.67;4291714;81;21563;-82
2021/07/04 16:25:22;;;;;;;4.80;4.10;;;;;;;24.44;46.79;98397.21;4299094;81;21021;-83
2021/07/04 16:31:25;;;;;;;5.22;4.20;;;;;;;24.39;46.73;98404.88;4297927;81;21071;-83
2021/07/04 16:37:28;;;;;;;4.65;4.15;;;;;;;24.34;47.24;98405.54;4299697;81;21058;-83
2021/07/04 16:43:29;;;;;;;5.08;3.95;;;;;;;24.22;47.31;98400.39;4172736;81;9999577;-82
2021/07/04 16:49:31;;;;;;;5.00;4.47;;;;;;;24.14;47.47;98397.81;4300746;81;21031;-83
2021/07/04 16:55:32;;;;;;;5.12;4.30;;;;;;;24.01;47.72;98401.50;4305505;81;21562;-83
2021/07/04 17:01:34;;;;;;;6.05;4.47;;;;;;;23.93;47.94;98395.34;4299830;81;21480;-82
2021/07/04 17:07:36;;;;;;;4.58;4.15;;;;;;;23.86;48.28;98396.48;4296106;81;20963;-84
2021/07/04 17:13:37;;;;;;;5.35;4.20;;;;;;;23.77;48.37;98390.97;4293414;81;21503;-82
2021/07/04 17:19:38;;;;;;;6.75;3.77;;;;;;;23.63;48.89;98393.09;4292151;81;21047;-82
2021/07/04 17:25:40;;;;;;;4.72;4.15;;;;;;;23.50;49.36;98390.37;4294081;81;21019;-82
2021/07/04 17:31:41;;;;;;;5.72;4.35;;;;;;;23.36;49.64;98391.86;4306251;81;20991;-83
2021/07/04 17:37:47;;;;;;;5.58;4.25;;;;;;;23.27;49.94;98387.73;4296675;80;21487;-83
2021/07/04 17:43:50;;;;;;;4.77;3.77;;;;;;;23.18;50.22;98396.89;4179943;81;9999911;-82
2021/07/04 17:49:52;;;;;;;5.00;3.72;;;;;;;23.12;50.20;98386.84;4295364;81;21080;-82
2021/07/04 17:55:54;;;;;;;5.35;4.78;;;;;;;23.05;50.08;98391.38;4302139;81;20992;-83
2021/07/04 18:01:56;;;;;;;7.28;4.40;;;;;;;22.91;50.58;98392.07;4272580;80;21663;-82
2021/07/04 18:07:57;;;;;;;5.58;4.45;;;;;;;22.77;50.92;98392.75;4254878;83;20997;-82
2021/07/04 18:13:58;;;;;;;4.92;4.47;;;;;;;22.66;50.82;98395.27;4268165;81;21065;-82
2021/07/04 18:20:08;;;;;;;5.67;4.92;;;;;;;22.49;50.77;98386.43;4260009;81;20984;-82
2021/07/04 18:26:10;;;;;;;4.87;4.37;;;;;;;22.26;51.18;98387.72;4262853;81;21002;-82
2021/07/04 18:32:11;;;;;;;6.37;5.30;;;;;;;22.08;51.83;98388.51;4258465;81;21044;-82
2021/07/04 18:38:13;;;;;;;5.85;5.25;;;;;;;21.83;53.01;98383.89;4261064;81;21043;-82
2021/07/04 18:44:14;;;;;;;6.20;5.50;;;;;;;21.53;53.84;98393.91;4140300;81;9999631;-82
2021/07/04 18:50:15;;;;;;;7.22;6.33;;;;;;;21.24;54.68;98396.30;4265273;80;21707;-82
2021/07/04 18:56:17;;;;;;;7.80;5.90;;;;;;;20.97;55.52;98405.34;4292058;81;21455;-82
2021/07/04 19:02:19;;;;;;;7.47;6.00;;;;;;;20.80;56.37;98410.18;4283933;81;21058;-82
2021/07/04 19:08:27;;;;;;;9.33;6.35;;;;;;;20.67;57.29;98410.91;4283155;81;21613;-82
2021/07/04 19:14:25;;;;;;;7.83;6.28;;;;;;;20.45;58.52;98419.89;4275651;81;21456;-82
2021/07/04 19:20:32;;;;;;;9.75;5.90;;;;;;;20.19;59.20;98421.42;4279715;81;21001;-82
2021/07/04 19:26:34;;;;;;;6.55;5.80;;;;;;;19.98;60.16;98421.39;4276365;81;21056;-82
2021/07/04 19:32:36;;;;;;;9.70;6.20;;;;;;;19.78;61.06;98416.13;4279010;81;21096;-82
2021/07/04 19:38:39;;;;;;;9.08;7.12;;;;;;;19.64;61.64;98412.45;4280443;81;21079;-82
2021/07/04 19:44:41;;;;;;;10.90;6.17;;;;;;;19.43;62.69;98422.91;4164684;81;10000312;-81
2021/07/04 19:50:42;;;;;;;13.10;8.55;;;;;;;19.24;63.53;98415.58;4283921;81;21079;-82
2021/07/04 19:56:45;;;;;;;16.02;10.32;;;;;;;18.97;63.98;98416.64;4288193;81;21002;-82
2021/07/04 20:02:49;;;;;;;20.43;13.68;;;;;;;18.78;64.83;98413.47;4299140;81;20981;-82
2021/07/04 20:08:50;;;;;;;17.77;13.13;;;;;;;18.62;65.26;98405.28;4297890;81;21112;-81
2021/07/04 20:14:51;;;;;;;15.20;10.18;;;;;;;18.55;65.47;98409.03;4308423;80;21519;-82
2021/07/04 20:20:56;;;;;;;11.18;7.80;;;;;;;18.38;66.27;98413.11;4297941;81;21046;-82
2021/07/04 20:26:56;;;;;;;13.10;9.50;;;;;;;18.38;66.58;98413.71;4296749;80;21054;-81
2021/07/04 20:32:58;;;;;;;11.60;8.58;;;;;;;18.35;66.86;98418.09;4302721;81;21043;-81
2021/07/04 20:38:59;;;;;;;11.25;8.20;;;;;;;18.18;67.58;98415.86;4296222;81;21050;-81
2021/07/04 20:45:01;;;;;;;12.55;9.00;;;;;;;17.98;67.67;98423.55;4302233;81;21024;-81
2021/07/04 20:51:02;;;;;;;13.72;10.00;;;;;;;17.85;67.83;98427.65;4293475;81;21511;-82
2021/07/04 20:57:09;;;;;;;17.23;9.33;;;;;;;17.73;68.21;98424.20;4308444;81;21086;-81
2021/07/04 21:03:10;;;;;;;13.98;9.25;;;;;;;17.71;69.11;98425.23;4290026;80;21054;-81
2021/07/04 21:09:11;;;;;;;11.90;7.72;;;;;;;17.50;69.56;98429.95;4292432;81;21493;-81
2021/07/04 21:15:13;;;;;;;13.50;9.78;;;;;;;17.36;70.17;98434.42;4289382;81;21641;-81
2021/07/04 21:21:16;;;;;;;17.32;10.13;;;;;;;17.29;70.54;98433.20;4287086;81;21004;-81
2021/07/04 21:27:17;;;;;;;15.25;9.38;;;;;;;17.27;71.19;98437.03;4286521;81;21040;-81
2021/07/04 21:33:18;;;;;;;15.75;9.90;;;;;;;17.09;71.48;98431.13;4292471;81;21599;-80
2021/07/04 21:39:20;;;;;;;13.35;9.90;;;;;;;16.94;71.77;98427.91;4294005;81;21075;-81
2021/07/04 21:45:22;;;;;;;14.87;10.85;;;;;;;16.76;72.12;98428.94;4294977;81;21040;-81
2021/07/04 21:51:24;;;;;;;16.37;10.43;;;;;;;16.61;72.70;98429.68;4296366;80;21052;-81
2021/07/04 21:57:25;;;;;;;13.20;10.13;;;;;;;16.45;73.12;98434.56;4291489;81;21032;-81
2021/07/04 22:03:27;;;;;;;14.45;10.50;;;;;;;16.37;73.39;98440.02;4291968;81;21015;-81
2021/07/04 22:09:29;;;;;;;18.37;11.20;;;;;;;16.44;73.78;98437.16;4289911;81;21891;-81
2021/07/04 22:15:31;;;;;;;19.07;12.45;;;;;;;16.42;74.03;98443.67;4287065;81;21034;-81
2021/07/04 22:21:32;;;;;;;19.35;11.78;;;;;;;16.31;74.34;98430.69;4290123;81;21025;-80
2021/07/04 22:27:34;;;;;;;13.83;10.45;;;;;;;16.24;74.50;98425.30;4290010;81;21045;-81
2021/07/04 22:33:36;;;;;;;13.62;10.40;;;;;;;16.19;75.00;98434.69;4290207;81;21016;-81
2021/07/04 22:39:37;;;;;;;13.50;10.48;;;;;;;16.13;74.96;98440.53;4292297;81;21070;-81
2021/07/04 22:45:38;;;;;;;16.20;11.80;;;;;;;16.10;75.59;98435.24;4293332;81;21043;-81
2021/07/04 22:51:40;;;;;;;12.03;9.55;;;;;;;16.06;75.69;98435.14;4289314;81;21494;-81
2021/07/04 22:57:46;;;;;;;16.07;10.43;;;;;;;16.05;76.16;98441.28;4291566;81;21040;-81
2021/07/04 23:03:47;;;;;;;14.70;9.50;;;;;;;16.03;75.99;98442.30;4228055;81;21056;-81
2021/07/04 23:09:48;;;;;;;12.55;10.50;;;;;;;15.89;76.05;98440.41;4199874;82;21544;-80
2021/07/04 23:15:50;;;;;;;16.67;10.10;;;;;;;15.72;76.46;98440.92;4196930;82;21668;-80
2021/07/04 23:21:52;;;;;;;13.08;10.25;;;;;;;15.59;76.80;98445.48;4207714;82;21037;-81
2021/07/04 23:27:54;;;;;;;14.13;9.95;;;;;;;15.49;77.11;98438.95;4198276;82;22277;-80
2021/07/04 23:33:55;;;;;;;12.93;9.05;;;;;;;15.48;77.21;98424.98;4200765;83;21104;-81
2021/07/04 23:39:56;;;;;;;12.85;8.93;;;;;;;15.59;77.97;98423.41;4199527;82;21006;-80
2021/07/04 23:45:57;;;;;;;13.83;9.13;;;;;;;15.62;77.41;98417.84;4202526;82;21072;-80
2021/07/04 23:51:59;;;;;;;12.37;9.18;;;;;;;15.46;77.45;98415.55;4201973;82;20972;-80
2021/07/04 23:58:00;;;;;;;12.65;9.78;;;;;;;15.21;77.72;98417.34;4201692;82;21037;-81
